sensor_id;sensor_type;location;lat;lon;timestamp;pressure;altitude;pressure_sealevel;temperature;humidity
13709;BME280;54933;51.908;7.730;2022-10-26T00:01:18;100942.78;;;21.58;89.44
13709;BME280;54933;51.908;7.730;2022-10-26T00:03:44;100933.84;;;21.58;89.35
13709;BME280;54933;51.908;7.730;2022-10-26T00:06:12;100937.38;;;21.58;89.47
13709;BME280;54933;51.908;7.730;2022-10-26T00:08:38;100930.09;;;21.59;89.51
13709;BME280;54933;51.908;7.730;2022-10-26T00:11:04;100927.38;;;21.59;89.36
13709;BME280;54933;51.908;7.730;2022-10-26T00:13:30;100921.13;;;21.58;89.48
13709;BME280;54933;51.908;7.730;2022-10-26T00:15:55;100926.56;;;21.58;89.10
13709;BME280;54933;51.908;7.730;2022-10-26T00:18:21;100926.38;;;21.60;89.27
13709;BME280;54933;51.908;7.730;2022-10-26T00:20:46;100927.38;;;21.59;89.34
13709;BME280;54933;51.908;7.730;2022-10-26T00:23:11;100927.38;;;21.59;89.33
13709;BME280;54933;51.908;7.730;2022-10-26T00:25:37;100921.13;;;21.58;89.44
13709;BME280;54933;51.908;7.730;2022-10-26T00:28:02;100927.16;;;21.61;89.07
13709;BME280;54933;51.908;7.730;2022-10-26T00:30:28;100925.53;;;21.60;89.02
13709;BME280;54933;51.908;7.730;2022-10-26T00:32:53;100920.13;;;21.60;89.16
13709;BME280;54933;51.908;7.730;2022-10-26T00:35:18;100921.75;;;21.61;89.08
13709;BME280;54933;51.908;7.730;2022-10-26T00:37:43;100918.25;;;21.60;89.13
13709;BME280;54933;51.908;7.730;2022-10-26T00:40:09;100921.75;;;21.61;89.11
13709;BME280;54933;51.908;7.730;2022-10-26T00:42:34;100912.63;;;21.62;88.82
13709;BME280;54933;51.908;7.730;2022-10-26T00:45:22;100916.34;;;21.61;88.84
13709;BME280;54933;51.908;7.730;2022-10-26T00:47:57;100918.03;;;21.62;88.97
13709;BME280;54933;51.908;7.730;2022-10-26T00:50:27;100909.06;;;21.61;89.04
13709;BME280;54933;51.908;7.730;2022-10-26T00:52:56;100918.03;;;21.62;88.86
13709;BME280;54933;51.908;7.730;2022-10-26T00:55:26;100916.97;;;21.63;89.04
13709;BME280;54933;51.908;7.730;2022-10-26T00:57:52;100915.91;;;21.64;88.60
13709;BME280;54933;51.908;7.730;2022-10-26T01:00:18;100920.50;;;21.63;88.84
13709;BME280;54933;51.908;7.730;2022-10-26T01:02:45;100915.09;;;21.63;88.70
13709;BME280;54933;51.908;7.730;2022-10-26T01:05:14;100905.94;;;21.64;88.46
13709;BME280;54933;51.908;7.730;2022-10-26T01:07:41;100905.09;;;21.64;88.55
13709;BME280;54933;51.908;7.730;2022-10-26T01:10:08;100904.28;;;21.63;88.60
13709;BME280;54933;51.908;7.730;2022-10-26T01:12:33;100901.38;;;21.65;88.17
13709;BME280;54933;51.908;7.730;2022-10-26T01:14:58;100895.97;;;21.65;88.53
13709;BME280;54933;51.908;7.730;2022-10-26T01:17:51;100893.47;;;21.63;88.91
13709;BME280;54933;51.908;7.730;2022-10-26T01:20:48;100894.28;;;21.64;88.78
13709;BME280;54933;51.908;7.730;2022-10-26T01:23:46;100888.88;;;21.64;88.61
13709;BME280;54933;51.908;7.730;2022-10-26T01:26:31;100896.97;;;21.64;88.68
13709;BME280;54933;51.908;7.730;2022-10-26T01:31:54;100888.88;;;21.64;88.77
13709;BME280;54933;51.908;7.730;2022-10-26T01:34:55;100891.56;;;21.64;88.60
13709;BME280;54933;51.908;7.730;2022-10-26T01:37:29;100885.56;;;21.62;88.93
13709;BME280;54933;51.908;7.730;2022-10-26T01:40:02;100884.53;;;21.63;88.82
13709;BME280;54933;51.908;7.730;2022-10-26T01:42:31;100877.25;;;21.63;88.89
13709;BME280;54933;51.908;7.730;2022-10-26T01:45:03;100874.75;;;21.62;88.73
13709;BME280;54933;51.908;7.730;2022-10-26T01:47:31;100867.47;;;21.62;89.17
13709;BME280;54933;51.908;7.730;2022-10-26T01:49:59;100874.75;;;21.62;88.93
13709;BME280;54933;51.908;7.730;2022-10-26T01:52:26;100873.09;;;21.61;89.01
13709;BME280;54933;51.908;7.730;2022-10-26T01:55:06;100865.59;;;21.63;89.06
13709;BME280;54933;51.908;7.730;2022-10-26T01:57:34;100866.66;;;21.62;89.08
13709;BME280;54933;51.908;7.730;2022-10-26T02:05:56;100853.13;;;21.62;89.17
13709;BME280;54933;51.908;7.730;2022-10-26T02:08:47;100854.16;;;21.61;89.39
13709;BME280;54933;51.908;7.730;2022-10-26T02:11:26;100853.34;;;21.60;89.27
13709;BME280;54933;51.908;7.730;2022-10-26T02:14:33;100846.03;;;21.61;89.02
13709;BME280;54933;51.908;7.730;2022-10-26T02:17:07;100847.72;;;21.62;89.22
13709;BME280;54933;51.908;7.730;2022-10-26T02:19:46;100834.41;;;21.60;89.47
13709;BME280;54933;51.908;7.730;2022-10-26T02:22:30;100832.53;;;21.61;89.17
13709;BME280;54933;51.908;7.730;2022-10-26T02:25:00;100835.22;;;21.61;89.13
13709;BME280;54933;51.908;7.730;2022-10-26T02:27:32;100839.00;;;21.60;89.05
13709;BME280;54933;51.908;7.730;2022-10-26T02:29:59;100839.00;;;21.60;89.33
13709;BME280;54933;51.908;7.730;2022-10-26T02:32:29;100839.00;;;21.60;89.49
13709;BME280;54933;51.908;7.730;2022-10-26T02:34:57;100833.59;;;21.60;89.26
13709;BME280;54933;51.908;7.730;2022-10-26T02:37:24;100826.50;;;21.58;89.60
13709;BME280;54933;51.908;7.730;2022-10-26T02:39:51;100833.59;;;21.60;89.48
13709;BME280;54933;51.908;7.730;2022-10-26T02:42:18;100828.19;;;21.60;89.45
13709;BME280;54933;51.908;7.730;2022-10-26T02:44:55;100824.41;;;21.61;89.61
13709;BME280;54933;51.908;7.730;2022-10-26T02:47:23;100825.25;;;21.61;89.46
13709;BME280;54933;51.908;7.730;2022-10-26T02:49:50;100815.28;;;21.62;89.38
13709;BME280;54933;51.908;7.730;2022-10-26T02:52:22;100812.78;;;21.60;89.13
13709;BME280;54933;51.908;7.730;2022-10-26T02:57:21;100819.84;;;21.61;89.22
13709;BME280;54933;51.908;7.730;2022-10-26T02:59:48;100811.94;;;21.60;89.13
13709;BME280;54933;51.908;7.730;2022-10-26T03:02:16;100808.19;;;21.61;89.07
13709;BME280;54933;51.908;7.730;2022-10-26T03:04:43;100808.19;;;21.61;89.44
13709;BME280;54933;51.908;7.730;2022-10-26T03:07:08;100802.78;;;21.61;89.17
13709;BME280;54933;51.908;7.730;2022-10-26T03:09:34;100802.78;;;21.61;89.28
13709;BME280;54933;51.908;7.730;2022-10-26T03:11:59;100808.19;;;21.61;89.28
13709;BME280;54933;51.908;7.730;2022-10-26T03:14:24;100813.59;;;21.61;89.36
13709;BME280;54933;51.908;7.730;2022-10-26T03:16:50;100810.88;;;21.61;89.54
13709;BME280;54933;51.908;7.730;2022-10-26T03:19:15;100804.44;;;21.62;89.27
13709;BME280;54933;51.908;7.730;2022-10-26T03:21:41;100804.22;;;21.63;89.29
13709;BME280;54933;51.908;7.730;2022-10-26T03:24:07;100806.72;;;21.65;88.96
13709;BME280;54933;51.908;7.730;2022-10-26T03:26:32;100806.94;;;21.63;89.13
13709;BME280;54933;51.908;7.730;2022-10-26T03:28:57;100807.53;;;21.65;88.83
13709;BME280;54933;51.908;7.730;2022-10-26T03:31:22;100808.59;;;21.64;88.61
13709;BME280;54933;51.908;7.730;2022-10-26T03:33:48;100806.09;;;21.63;88.62
13709;BME280;54933;51.908;7.730;2022-10-26T03:36:13;100813.16;;;21.64;88.25
13709;BME280;54933;51.908;7.730;2022-10-26T03:38:38;100798.81;;;21.63;88.17
13709;BME280;54933;51.908;7.730;2022-10-26T03:41:04;100803.16;;;21.64;88.15
13709;BME280;54933;51.908;7.730;2022-10-26T03:43:29;100795.91;;;21.65;88.04
13709;BME280;54933;51.908;7.730;2022-10-26T03:45:54;100798.59;;;21.65;88.09
13709;BME280;54933;51.908;7.730;2022-10-26T03:48:20;100791.50;;;21.64;87.72
13709;BME280;54933;51.908;7.730;2022-10-26T03:50:45;100793.19;;;21.65;88.25
13709;BME280;54933;51.908;7.730;2022-10-26T03:53:10;100795.91;;;21.65;88.23
13709;BME280;54933;51.908;7.730;2022-10-26T03:55:35;100792.13;;;21.66;87.73
13709;BME280;54933;51.908;7.730;2022-10-26T03:58:01;100796.50;;;21.67;87.72
13709;BME280;54933;51.908;7.730;2022-10-26T04:00:27;100796.50;;;21.67;87.84
13709;BME280;54933;51.908;7.730;2022-10-26T04:02:54;100799.22;;;21.67;87.87
13709;BME280;54933;51.908;7.730;2022-10-26T04:05:20;100796.50;;;21.67;87.78
13709;BME280;54933;51.908;7.730;2022-10-26T04:07:57;100798.16;;;21.68;87.99
13709;BME280;54933;51.908;7.730;2022-10-26T04:10:24;100798.16;;;21.68;87.99
13709;BME280;54933;51.908;7.730;2022-10-26T04:12:50;100794.38;;;21.69;87.85
13709;BME280;54933;51.908;7.730;2022-10-26T04:15:15;100794.84;;;21.66;88.14
13709;BME280;54933;51.908;7.730;2022-10-26T04:17:41;100796.69;;;21.65;88.11
13709;BME280;54933;51.908;7.730;2022-10-26T04:20:07;100787.78;;;21.65;88.20
13709;BME280;54933;51.908;7.730;2022-10-26T04:22:33;100793.19;;;21.65;88.45
13709;BME280;54933;51.908;7.730;2022-10-26T04:24:58;100793.19;;;21.65;88.37
13709;BME280;54933;51.908;7.730;2022-10-26T04:27:23;100790.50;;;21.65;88.64
13709;BME280;54933;51.908;7.730;2022-10-26T04:29:49;100785.09;;;21.65;88.54
13709;BME280;54933;51.908;7.730;2022-10-26T04:32:14;100784.25;;;21.64;88.57
13709;BME280;54933;51.908;7.730;2022-10-26T04:34:39;100783.41;;;21.64;88.30
13709;BME280;54933;51.908;7.730;2022-10-26T04:37:05;100783.19;;;21.65;88.43
13709;BME280;54933;51.908;7.730;2022-10-26T04:39:30;100785.31;;;21.63;88.30
13709;BME280;54933;51.908;7.730;2022-10-26T04:41:55;100780.69;;;21.64;88.23
13709;BME280;54933;51.908;7.730;2022-10-26T04:44:20;100779.06;;;21.63;88.33
13709;BME280;54933;51.908;7.730;2022-10-26T04:46:46;100795.06;;;21.64;88.37
13709;BME280;54933;51.908;7.730;2022-10-26T04:49:11;100790.72;;;21.63;88.01
13709;BME280;54933;51.908;7.730;2022-10-26T04:51:36;100783.63;;;21.62;88.38
13709;BME280;54933;51.908;7.730;2022-10-26T04:54:01;100779.91;;;21.63;88.50
13709;BME280;54933;51.908;7.730;2022-10-26T04:56:28;100784.47;;;21.63;88.40
13709;BME280;54933;51.908;7.730;2022-10-26T04:58:53;100783.41;;;21.64;88.34
13709;BME280;54933;51.908;7.730;2022-10-26T05:01:19;100788.22;;;21.62;88.55
13709;BME280;54933;51.908;7.730;2022-10-26T05:03:51;100784.47;;;21.63;88.46
13709;BME280;54933;51.908;7.730;2022-10-26T05:06:17;100784.47;;;21.63;88.32
13709;BME280;54933;51.908;7.730;2022-10-26T05:08:43;100790.72;;;21.63;88.50
13709;BME280;54933;51.908;7.730;2022-10-26T05:11:08;100792.34;;;21.64;88.47
13709;BME280;54933;51.908;7.730;2022-10-26T05:13:33;100790.72;;;21.63;88.37
13709;BME280;54933;51.908;7.730;2022-10-26T05:15:58;100797.75;;;21.64;88.35
13709;BME280;54933;51.908;7.730;2022-10-26T05:18:24;100791.50;;;21.64;88.18
13709;BME280;54933;51.908;7.730;2022-10-26T05:20:53;100794.00;;;21.65;88.05
13709;BME280;54933;51.908;7.730;2022-10-26T05:23:19;100800.25;;;21.66;88.24
13709;BME280;54933;51.908;7.730;2022-10-26T05:25:45;100798.59;;;21.65;88.34
13709;BME280;54933;51.908;7.730;2022-10-26T05:28:11;100794.84;;;21.66;88.57
13709;BME280;54933;51.908;7.730;2022-10-26T05:30:38;100789.44;;;21.66;88.34
13709;BME280;54933;51.908;7.730;2022-10-26T05:33:04;100790.25;;;21.66;88.47
13709;BME280;54933;51.908;7.730;2022-10-26T05:35:30;100789.44;;;21.66;88.08
13709;BME280;54933;51.908;7.730;2022-10-26T05:37:56;100796.50;;;21.67;88.64
13709;BME280;54933;51.908;7.730;2022-10-26T05:40:22;100785.88;;;21.65;88.12
13709;BME280;54933;51.908;7.730;2022-10-26T05:42:47;100793.19;;;21.65;88.32
13709;BME280;54933;51.908;7.730;2022-10-26T05:45:13;100786.94;;;21.64;88.26
13709;BME280;54933;51.908;7.730;2022-10-26T05:47:39;100793.19;;;21.65;88.22
13709;BME280;54933;51.908;7.730;2022-10-26T05:50:06;100798.59;;;21.65;88.32
13709;BME280;54933;51.908;7.730;2022-10-26T05:52:38;100797.38;;;21.61;88.40
13709;BME280;54933;51.908;7.730;2022-10-26T05:55:04;100810.28;;;21.58;88.25
13709;BME280;54933;51.908;7.730;2022-10-26T05:57:30;100811.13;;;21.59;88.29
13709;BME280;54933;51.908;7.730;2022-10-26T05:59:55;100813.19;;;21.57;88.26
13709;BME280;54933;51.908;7.730;2022-10-26T06:02:30;100812.41;;;21.57;88.43
13709;BME280;54933;51.908;7.730;2022-10-26T06:05:02;100810.72;;;21.55;88.50
13709;BME280;54933;51.908;7.730;2022-10-26T06:07:28;100808.63;;;21.58;88.58
13709;BME280;54933;51.908;7.730;2022-10-26T06:09:53;100808.94;;;21.12;85.16
13709;BME280;54933;51.908;7.730;2022-10-26T06:12:19;100814.41;;;20.29;78.86
13709;BME280;54933;51.908;7.730;2022-10-26T06:14:44;100832.88;;;19.99;76.43
13709;BME280;54933;51.908;7.730;2022-10-26T06:20:34;100828.84;;;20.73;75.95
13709;BME280;54933;51.908;7.730;2022-10-26T06:31:31;100823.66;;;21.22;77.63
13709;BME280;54933;51.908;7.730;2022-10-26T06:33:58;100821.38;;;20.69;75.32
13709;BME280;54933;51.908;7.730;2022-10-26T06:36:25;100810.34;;;20.77;74.21
13709;BME280;54933;51.908;7.730;2022-10-26T06:38:59;100805.25;;;20.93;74.88
13709;BME280;54933;51.908;7.730;2022-10-26T06:41:26;100815.22;;;21.06;76.23
13709;BME280;54933;51.908;7.730;2022-10-26T06:43:51;100800.59;;;21.13;77.16
13709;BME280;54933;51.908;7.730;2022-10-26T06:46:47;100812.22;;;21.20;78.06
13709;BME280;54933;51.908;7.730;2022-10-26T06:49:30;100818.41;;;21.27;78.65
13709;BME280;54933;51.908;7.730;2022-10-26T06:51:58;100808.81;;;21.31;78.97
13709;BME280;54933;51.908;7.730;2022-10-26T06:54:40;100810.28;;;21.34;79.49
13709;BME280;54933;51.908;7.730;2022-10-26T06:57:12;100806.28;;;21.36;80.34
13709;BME280;54933;51.908;7.730;2022-10-26T06:59:43;100811.25;;;21.39;80.77
13709;BME280;54933;51.908;7.730;2022-10-26T07:02:12;100812.94;;;21.40;81.52
13709;BME280;54933;51.908;7.730;2022-10-26T07:04:39;100816.22;;;21.42;81.57
13709;BME280;54933;51.908;7.730;2022-10-26T07:07:05;100807.31;;;21.42;81.97
13709;BME280;54933;51.908;7.730;2022-10-26T07:09:30;100814.34;;;21.43;82.03
13709;BME280;54933;51.908;7.730;2022-10-26T07:11:55;100813.28;;;21.44;82.35
13709;BME280;54933;51.908;7.730;2022-10-26T07:14:21;100814.97;;;21.45;82.43
13709;BME280;54933;51.908;7.730;2022-10-26T07:16:46;100823.09;;;21.45;82.48
13709;BME280;54933;51.908;7.730;2022-10-26T07:19:11;100832.00;;;21.45;82.72
13709;BME280;54933;51.908;7.730;2022-10-26T07:21:36;100827.44;;;21.46;82.61
13709;BME280;54933;51.908;7.730;2022-10-26T07:24:02;100821.19;;;21.45;82.92
13709;BME280;54933;51.908;7.730;2022-10-26T07:26:27;100824.50;;;21.47;83.13
13709;BME280;54933;51.908;7.730;2022-10-26T07:28:52;100817.22;;;21.48;83.49
13709;BME280;54933;51.908;7.730;2022-10-26T07:31:17;100822.84;;;21.46;83.47
13709;BME280;54933;51.908;7.730;2022-10-26T07:33:43;100822.84;;;21.46;83.64
13709;BME280;54933;51.908;7.730;2022-10-26T07:36:09;100828.25;;;21.46;83.49
13709;BME280;54933;51.908;7.730;2022-10-26T07:38:36;100831.81;;;21.47;83.88
13709;BME280;54933;51.908;7.730;2022-10-26T07:41:02;100827.22;;;21.47;83.96
13709;BME280;54933;51.908;7.730;2022-10-26T07:43:27;100830.75;;;21.48;83.81
13709;BME280;54933;51.908;7.730;2022-10-26T07:45:53;100826.19;;;21.48;84.19
13709;BME280;54933;51.908;7.730;2022-10-26T07:48:18;100831.59;;;21.48;84.26
13709;BME280;54933;51.908;7.730;2022-10-26T07:50:43;100831.59;;;21.48;84.34
13709;BME280;54933;51.908;7.730;2022-10-26T07:53:09;100833.22;;;21.49;84.52
13709;BME280;54933;51.908;7.730;2022-10-26T07:55:34;100835.94;;;21.49;84.52
13709;BME280;54933;51.908;7.730;2022-10-26T07:57:59;100834.88;;;21.50;84.63
13709;BME280;54933;51.908;7.730;2022-10-26T08:00:24;100834.06;;;21.50;84.66
13709;BME280;54933;51.908;7.730;2022-10-26T08:02:50;100834.88;;;21.50;84.77
13709;BME280;54933;51.908;7.730;2022-10-26T08:05:16;100828.66;;;21.50;85.03
13709;BME280;54933;51.908;7.730;2022-10-26T08:07:42;100835.72;;;21.51;84.92
13709;BME280;54933;51.908;7.730;2022-10-26T08:10:09;100834.88;;;21.50;85.07
13709;BME280;54933;51.908;7.730;2022-10-26T08:12:34;100839.47;;;21.50;85.20
13709;BME280;54933;51.908;7.730;2022-10-26T08:15:00;100841.97;;;21.51;85.48
13709;BME280;54933;51.908;7.730;2022-10-26T08:17:25;100839.25;;;21.51;85.37
13709;BME280;54933;51.908;7.730;2022-10-26T08:19:50;100838.63;;;21.49;85.57
13709;BME280;54933;51.908;7.730;2022-10-26T08:22:16;100833.22;;;21.49;86.14
13709;BME280;54933;51.908;7.730;2022-10-26T08:24:41;100825.75;;;21.51;86.57
13709;BME280;54933;51.908;7.730;2022-10-26T08:27:08;100825.75;;;21.51;86.34
13709;BME280;54933;51.908;7.730;2022-10-26T08:29:33;100821.34;;;21.50;86.27
13709;BME280;54933;51.908;7.730;2022-10-26T08:31:58;100831.16;;;21.51;86.39
13709;BME280;54933;51.908;7.730;2022-10-26T08:34:24;100823.03;;;21.51;86.40
13709;BME280;54933;51.908;7.730;2022-10-26T08:36:49;100825.75;;;21.51;86.67
13709;BME280;54933;51.908;7.730;2022-10-26T08:39:14;100819.28;;;21.52;86.40
13709;BME280;54933;51.908;7.730;2022-10-26T08:41:42;100826.34;;;21.53;86.59
13709;BME280;54933;51.908;7.730;2022-10-26T08:44:27;100822.59;;;21.54;86.45
13709;BME280;54933;51.908;7.730;2022-10-26T08:46:57;100821.53;;;21.55;86.55
13709;BME280;54933;51.908;7.730;2022-10-26T08:49:26;100822.59;;;21.54;86.81
13709;BME280;54933;51.908;7.730;2022-10-26T08:51:57;100823.22;;;21.57;86.91
13709;BME280;54933;51.908;7.730;2022-10-26T08:54:38;100819.44;;;21.58;86.74
13709;BME280;54933;51.908;7.730;2022-10-26T08:57:13;100812.97;;;21.58;86.87
13709;BME280;54933;51.908;7.730;2022-10-26T08:59:54;100821.09;;;21.58;87.09
13709;BME280;54933;51.908;7.730;2022-10-26T09:02:20;100821.09;;;21.58;87.14
13709;BME280;54933;51.908;7.730;2022-10-26T09:04:45;100821.09;;;21.58;87.03
13709;BME280;54933;51.908;7.730;2022-10-26T09:07:25;100817.34;;;21.60;87.04
13709;BME280;54933;51.908;7.730;2022-10-26T09:12:58;100809.88;;;21.62;87.30
13709;BME280;54933;51.908;7.730;2022-10-26T09:18:42;100813.16;;;21.64;87.19
13709;BME280;54933;51.908;7.730;2022-10-26T09:24:01;100822.31;;;21.63;87.31
13709;BME280;54933;51.908;7.730;2022-10-26T09:29:12;100849.38;;;21.63;87.38
13709;BME280;54933;51.908;7.730;2022-10-26T09:31:41;100853.72;;;21.64;87.47
13709;BME280;54933;51.908;7.730;2022-10-26T09:34:15;100857.47;;;21.63;87.46
13709;BME280;54933;51.908;7.730;2022-10-26T09:36:43;100855.63;;;21.63;87.42
13709;BME280;54933;51.908;7.730;2022-10-26T09:39:18;100861.81;;;21.64;87.59
13709;BME280;54933;51.908;7.730;2022-10-26T09:41:50;100876.19;;;21.64;87.60
13709;BME280;54933;51.908;7.730;2022-10-26T09:44:39;100869.94;;;21.64;87.70
13709;BME280;54933;51.908;7.730;2022-10-26T09:50:21;100869.13;;;21.63;87.59
13709;BME280;54933;51.908;7.730;2022-10-26T09:52:47;100868.06;;;21.64;87.59
13709;BME280;54933;51.908;7.730;2022-10-26T09:55:12;100871.84;;;21.63;88.06
13709;BME280;54933;51.908;7.730;2022-10-26T09:57:44;100867.22;;;21.64;87.94
13709;BME280;54933;51.908;7.730;2022-10-26T10:00:15;100873.47;;;21.64;87.96
13709;BME280;54933;51.908;7.730;2022-10-26T10:02:43;100872.66;;;21.64;88.17
13709;BME280;54933;51.908;7.730;2022-10-26T10:05:38;100880.34;;;21.67;88.03
13709;BME280;54933;51.908;7.730;2022-10-26T10:08:24;100881.59;;;21.64;87.88
13709;BME280;54933;51.908;7.730;2022-10-26T10:13:37;100899.47;;;21.65;88.10
13709;BME280;54933;51.908;7.730;2022-10-26T10:18:52;100907.59;;;21.65;88.36
13709;BME280;54933;51.908;7.730;2022-10-26T10:21:18;100907.59;;;21.65;88.20
13709;BME280;54933;51.908;7.730;2022-10-26T10:23:50;100898.66;;;21.65;88.48
13709;BME280;54933;51.908;7.730;2022-10-26T10:26:16;100907.59;;;21.65;88.58
13709;BME280;54933;51.908;7.730;2022-10-26T10:28:42;100919.25;;;21.66;88.43
13709;BME280;54933;51.908;7.730;2022-10-26T10:31:19;100907.59;;;21.65;88.47
13709;BME280;54933;51.908;7.730;2022-10-26T10:33:45;100917.59;;;21.65;88.62
13709;BME280;54933;51.908;7.730;2022-10-26T10:36:19;100921.94;;;21.66;88.38
13709;BME280;54933;51.908;7.730;2022-10-26T10:38:47;100920.91;;;21.67;88.62
13709;BME280;54933;51.908;7.730;2022-10-26T10:41:34;100923.63;;;21.67;88.81
13709;BME280;54933;51.908;7.730;2022-10-26T10:47:04;100924.22;;;21.69;88.79
13709;BME280;54933;51.908;7.730;2022-10-26T10:49:31;100927.97;;;21.68;89.02
13709;BME280;54933;51.908;7.730;2022-10-26T10:51:57;100920.47;;;21.70;88.72
13709;BME280;54933;51.908;7.730;2022-10-26T10:54:33;100932.09;;;21.70;88.90
13709;BME280;54933;51.908;7.730;2022-10-26T10:57:17;100932.94;;;21.71;89.12
13709;BME280;54933;51.908;7.730;2022-10-26T11:00:07;100925.88;;;21.70;88.68
13709;BME280;54933;51.908;7.730;2022-10-26T11:05:50;100928.81;;;21.68;89.08
13709;BME280;54933;51.908;7.730;2022-10-26T11:08:24;100932.31;;;21.69;89.48
13709;BME280;54933;51.908;7.730;2022-10-26T11:11:00;100931.72;;;21.67;89.29
13709;BME280;54933;51.908;7.730;2022-10-26T11:13:35;100929.03;;;21.67;89.23
13709;BME280;54933;51.908;7.730;2022-10-26T11:16:11;100931.72;;;21.67;89.73
13709;BME280;54933;51.908;7.730;2022-10-26T11:18:45;100932.53;;;21.67;89.83
13709;BME280;54933;51.908;7.730;2022-10-26T11:21:18;100930.69;;;21.68;89.93
13709;BME280;54933;51.908;7.730;2022-10-26T11:23:51;100931.72;;;21.67;90.14
13709;BME280;54933;51.908;7.730;2022-10-26T11:26:31;100934.22;;;21.68;90.24
13709;BME280;54933;51.908;7.730;2022-10-26T11:29:03;100931.72;;;21.67;90.22
13709;BME280;54933;51.908;7.730;2022-10-26T11:31:37;100923.63;;;21.67;90.24
13709;BME280;54933;51.908;7.730;2022-10-26T11:37:04;100926.91;;;21.69;90.50
13709;BME280;54933;51.908;7.730;2022-10-26T11:39:41;100925.03;;;21.69;90.52
13709;BME280;54933;51.908;7.730;2022-10-26T11:42:23;100923.19;;;21.70;90.61
13709;BME280;54933;51.908;7.730;2022-10-26T11:45:24;100924.00;;;21.70;90.32
13709;BME280;54933;51.908;7.730;2022-10-26T11:47:53;100932.94;;;21.71;90.22
13709;BME280;54933;51.908;7.730;2022-10-26T11:50:24;100929.19;;;21.72;90.34
13709;BME280;54933;51.908;7.730;2022-10-26T11:52:55;100922.75;;;21.73;90.29
13709;BME280;54933;51.908;7.730;2022-10-26T11:55:22;100929.00;;;21.73;90.39
13709;BME280;54933;51.908;7.730;2022-10-26T11:57:50;100934.19;;;21.75;90.45
13709;BME280;54933;51.908;7.730;2022-10-26T12:00:19;100935.22;;;21.74;90.23
13709;BME280;54933;51.908;7.730;2022-10-26T12:02:49;100939.59;;;21.75;90.69
13709;BME280;54933;51.908;7.730;2022-10-26T12:05:16;100942.09;;;21.76;90.26
13709;BME280;54933;51.908;7.730;2022-10-26T12:07:55;100941.22;;;21.76;90.91
13709;BME280;54933;51.908;7.730;2022-10-26T12:10:29;100945.63;;;21.77;90.54
13709;BME280;54933;51.908;7.730;2022-10-26T12:13:02;100942.91;;;21.77;90.56
13709;BME280;54933;51.908;7.730;2022-10-26T12:15:43;100943.94;;;21.76;90.71
13709;BME280;54933;51.908;7.730;2022-10-26T12:18:13;100957.28;;;21.77;90.95
13709;BME280;54933;51.908;7.730;2022-10-26T12:20:58;100965.56;;;21.76;90.69
13709;BME280;54933;51.908;7.730;2022-10-26T12:23:28;100964.97;;;21.74;91.02
13709;BME280;54933;51.908;7.730;2022-10-26T12:33:57;100982.25;;;21.73;89.76
13709;BME280;54933;51.908;7.730;2022-10-26T12:39:31;100983.88;;;21.74;90.38
13709;BME280;54933;51.908;7.730;2022-10-26T12:42:10;100993.69;;;21.75;90.47
13709;BME280;54933;51.908;7.730;2022-10-26T12:52:38;100998.69;;;21.78;90.67
13709;BME280;54933;51.908;7.730;2022-10-26T13:00:12;101007.44;;;21.80;90.92
13709;BME280;54933;51.908;7.730;2022-10-26T13:08:12;101021.75;;;21.80;91.08
13709;BME280;54933;51.908;7.730;2022-10-26T13:10:46;101020.72;;;21.81;90.81
13709;BME280;54933;51.908;7.730;2022-10-26T13:13:24;101028.84;;;21.81;91.13
13709;BME280;54933;51.908;7.730;2022-10-26T13:15:54;101026.94;;;21.82;91.25
13709;BME280;54933;51.908;7.730;2022-10-26T13:18:21;101025.31;;;21.81;91.39
13709;BME280;54933;51.908;7.730;2022-10-26T13:20:57;101026.94;;;21.82;91.27
13709;BME280;54933;51.908;7.730;2022-10-26T13:23:28;101028.63;;;21.83;91.08
13709;BME280;54933;51.908;7.730;2022-10-26T13:31:03;101024.47;;;21.80;91.31
13709;BME280;54933;51.908;7.730;2022-10-26T13:33:37;101015.53;;;21.80;91.42
13709;BME280;54933;51.908;7.730;2022-10-26T13:39:16;101028.22;;;21.79;91.79
13709;BME280;54933;51.908;7.730;2022-10-26T13:41:44;101036.34;;;21.79;91.79
13709;BME280;54933;51.908;7.730;2022-10-26T13:44:20;101031.78;;;21.80;91.76
13709;BME280;54933;51.908;7.730;2022-10-26T13:46:52;101043.41;;;21.80;91.86
13709;BME280;54933;51.908;7.730;2022-10-26T13:49:23;101041.53;;;21.81;91.76
13709;BME280;54933;51.908;7.730;2022-10-26T13:51:52;101045.88;;;21.82;91.78
13709;BME280;54933;51.908;7.730;2022-10-26T13:54:26;101043.19;;;21.82;91.77
13709;BME280;54933;51.908;7.730;2022-10-26T13:59:39;101053.19;;;21.81;91.49
13709;BME280;54933;51.908;7.730;2022-10-26T14:02:14;101050.28;;;21.83;91.42
13709;BME280;54933;51.908;7.730;2022-10-26T14:04:47;101048.59;;;21.82;91.58
13709;BME280;54933;51.908;7.730;2022-10-26T14:07:18;101061.91;;;21.83;91.65
13709;BME280;54933;51.908;7.730;2022-10-26T14:09:55;101057.56;;;21.82;91.41
13709;BME280;54933;51.908;7.730;2022-10-26T14:12:21;101050.28;;;21.83;91.53
13709;BME280;54933;51.908;7.730;2022-10-26T14:14:47;101049.22;;;21.84;91.81
13709;BME280;54933;51.908;7.730;2022-10-26T14:17:24;101050.28;;;21.83;91.68
13709;BME280;54933;51.908;7.730;2022-10-26T14:19:50;101050.28;;;21.83;91.56
13709;BME280;54933;51.908;7.730;2022-10-26T14:22:25;101054.00;;;21.82;91.68
13709;BME280;54933;51.908;7.730;2022-10-26T14:24:59;101054.00;;;21.82;91.75
13709;BME280;54933;51.908;7.730;2022-10-26T14:27:30;101059.41;;;21.82;91.96
13709;BME280;54933;51.908;7.730;2022-10-26T14:29:55;101063.19;;;21.81;92.19
13709;BME280;54933;51.908;7.730;2022-10-26T14:32:31;101057.75;;;21.81;92.17
13709;BME280;54933;51.908;7.730;2022-10-26T14:34:57;101052.34;;;21.81;92.40
13709;BME280;54933;51.908;7.730;2022-10-26T14:40:01;101055.28;;;21.79;92.32